sensor_id;sensor_type;location;lat;lon;timestamp;temperature;humidity
31967;DHT22;18496;52.042;6.812;2023-09-19T00:00:44;18.40;99.50
31967;DHT22;18496;52.042;6.812;2023-09-19T00:02:54;18.40;99.50
31967;DHT22;18496;52.042;6.812;2023-09-19T00:04:58;18.40;99.50
31967;DHT22;18496;52.042;6.812;2023-09-19T00:07:02;18.40;99.50
31967;DHT22;18496;52.042;6.812;2023-09-19T00:09:06;18.40;99.50
31967;DHT22;18496;52.042;6.812;2023-09-19T00:11:14;18.40;99.50
31967;DHT22;18496;52.042;6.812;2023-09-19T00:13:17;18.40;99.70
31967;DHT22;18496;52.042;6.812;2023-09-19T00:15:23;18.40;99.60
31967;DHT22;18496;52.042;6.812;2023-09-19T00:17:27;18.40;99.60
31967;DHT22;18496;52.042;6.812;2023-09-19T00:19:35;18.40;99.50
31967;DHT22;18496;52.042;6.812;2023-09-19T00:21:38;18.50;99.50
31967;DHT22;18496;52.042;6.812;2023-09-19T00:23:44;18.50;99.30
31967;DHT22;18496;52.042;6.812;2023-09-19T00:25:48;18.50;99.30
31967;DHT22;18496;52.042;6.812;2023-09-19T00:27:52;18.60;99.20
31967;DHT22;18496;52.042;6.812;2023-09-19T00:29:55;18.50;99.20
31967;DHT22;18496;52.042;6.812;2023-09-19T00:31:59;18.50;99.30
31967;DHT22;18496;52.042;6.812;2023-09-19T00:34:04;18.40;99.40
31967;DHT22;18496;52.042;6.812;2023-09-19T00:36:07;18.50;99.40
31967;DHT22;18496;52.042;6.812;2023-09-19T00:38:11;18.50;99.50
31967;DHT22;18496;52.042;6.812;2023-09-19T00:40:18;18.40;99.40
31967;DHT22;18496;52.042;6.812;2023-09-19T00:42:22;18.40;99.40
31967;DHT22;18496;52.042;6.812;2023-09-19T00:44:26;18.40;99.50
31967;DHT22;18496;52.042;6.812;2023-09-19T00:46:31;18.40;99.50
31967;DHT22;18496;52.042;6.812;2023-09-19T00:48:40;18.40;99.50
31967;DHT22;18496;52.042;6.812;2023-09-19T00:50:46;18.40;99.60
31967;DHT22;18496;52.042;6.812;2023-09-19T00:52:54;18.40;99.60
31967;DHT22;18496;52.042;6.812;2023-09-19T00:54:59;18.40;99.60
31967;DHT22;18496;52.042;6.812;2023-09-19T00:57:04;18.40;99.60
31967;DHT22;18496;52.042;6.812;2023-09-19T00:59:07;18.40;99.60
31967;DHT22;18496;52.042;6.812;2023-09-19T01:01:12;18.40;99.80
31967;DHT22;18496;52.042;6.812;2023-09-19T01:03:17;18.40;99.60
31967;DHT22;18496;52.042;6.812;2023-09-19T01:05:21;18.40;99.70
31967;DHT22;18496;52.042;6.812;2023-09-19T01:07:28;18.40;99.60
31967;DHT22;18496;52.042;6.812;2023-09-19T01:09:34;18.40;99.60
31967;DHT22;18496;52.042;6.812;2023-09-19T01:11:42;18.40;99.60
31967;DHT22;18496;52.042;6.812;2023-09-19T01:13:48;18.40;99.40
31967;DHT22;18496;52.042;6.812;2023-09-19T01:18:55;18.40;99.20
31967;DHT22;18496;52.042;6.812;2023-09-19T01:30:21;18.30;98.80
31967;DHT22;18496;52.042;6.812;2023-09-19T01:32:29;18.20;98.70
31967;DHT22;18496;52.042;6.812;2023-09-19T01:34:47;18.20;98.80
31967;DHT22;18496;52.042;6.812;2023-09-19T01:36:52;18.20;98.70
31967;DHT22;18496;52.042;6.812;2023-09-19T01:38:57;18.20;98.60
31967;DHT22;18496;52.042;6.812;2023-09-19T01:41:11;18.10;98.70
31967;DHT22;18496;52.042;6.812;2023-09-19T01:43:33;18.10;98.70
31967;DHT22;18496;52.042;6.812;2023-09-19T01:52:35;18.10;99.20
31967;DHT22;18496;52.042;6.812;2023-09-19T01:54:52;18.00;99.30
31967;DHT22;18496;52.042;6.812;2023-09-19T01:57:07;18.00;99.50
31967;DHT22;18496;52.042;6.812;2023-09-19T01:59:16;18.00;99.60
31967;DHT22;18496;52.042;6.812;2023-09-19T02:01:24;17.90;99.70
31967;DHT22;18496;52.042;6.812;2023-09-19T02:03:28;17.90;99.80
31967;DHT22;18496;52.042;6.812;2023-09-19T02:05:32;17.90;99.80
31967;DHT22;18496;52.042;6.812;2023-09-19T02:07:36;17.80;99.90
31967;DHT22;18496;52.042;6.812;2023-09-19T02:09:41;17.80;99.90
31967;DHT22;18496;52.042;6.812;2023-09-19T02:11:46;17.80;99.90
31967;DHT22;18496;52.042;6.812;2023-09-19T02:13:50;17.80;99.90
31967;DHT22;18496;52.042;6.812;2023-09-19T02:15:57;17.80;99.90
31967;DHT22;18496;52.042;6.812;2023-09-19T02:18:02;17.70;99.90
31967;DHT22;18496;52.042;6.812;2023-09-19T02:20:06;17.70;99.90
31967;DHT22;18496;52.042;6.812;2023-09-19T02:22:13;17.60;99.90
31967;DHT22;18496;52.042;6.812;2023-09-19T02:24:17;17.60;99.90
31967;DHT22;18496;52.042;6.812;2023-09-19T02:26:23;17.60;99.90
31967;DHT22;18496;52.042;6.812;2023-09-19T02:28:27;17.50;99.90
31967;DHT22;18496;52.042;6.812;2023-09-19T02:30:35;17.50;99.90
31967;DHT22;18496;52.042;6.812;2023-09-19T02:32:39;17.50;99.90
31967;DHT22;18496;52.042;6.812;2023-09-19T02:34:43;17.50;99.90
31967;DHT22;18496;52.042;6.812;2023-09-19T02:36:48;17.50;99.90
31967;DHT22;18496;52.042;6.812;2023-09-19T02:38:51;17.50;99.90
31967;DHT22;18496;52.042;6.812;2023-09-19T02:40:55;17.50;99.90
31967;DHT22;18496;52.042;6.812;2023-09-19T02:42:59;17.50;99.90
31967;DHT22;18496;52.042;6.812;2023-09-19T02:45:03;17.40;99.90
31967;DHT22;18496;52.042;6.812;2023-09-19T02:47:07;17.40;99.90
31967;DHT22;18496;52.042;6.812;2023-09-19T02:49:10;17.30;99.90
31967;DHT22;18496;52.042;6.812;2023-09-19T02:51:14;17.30;99.90
31967;DHT22;18496;52.042;6.812;2023-09-19T02:53:18;17.30;99.90
31967;DHT22;18496;52.042;6.812;2023-09-19T02:55:22;17.30;99.90
31967;DHT22;18496;52.042;6.812;2023-09-19T02:57:26;17.30;99.90
31967;DHT22;18496;52.042;6.812;2023-09-19T02:59:32;17.20;99.90
31967;DHT22;18496;52.042;6.812;2023-09-19T03:01:36;17.20;99.90
31967;DHT22;18496;52.042;6.812;2023-09-19T03:03:41;17.20;99.90
31967;DHT22;18496;52.042;6.812;2023-09-19T03:05:45;17.20;99.90
31967;DHT22;18496;52.042;6.812;2023-09-19T03:07:51;17.20;99.80
31967;DHT22;18496;52.042;6.812;2023-09-19T03:09:54;17.20;99.70
31967;DHT22;18496;52.042;6.812;2023-09-19T03:11:58;17.10;99.70
31967;DHT22;18496;52.042;6.812;2023-09-19T03:14:03;17.10;99.70
31967;DHT22;18496;52.042;6.812;2023-09-19T03:16:08;17.10;99.60
31967;DHT22;18496;52.042;6.812;2023-09-19T03:18:12;17.10;99.50
31967;DHT22;18496;52.042;6.812;2023-09-19T03:20:17;17.10;99.50
31967;DHT22;18496;52.042;6.812;2023-09-19T03:22:21;17.00;99.40
31967;DHT22;18496;52.042;6.812;2023-09-19T03:24:25;17.00;99.50
31967;DHT22;18496;52.042;6.812;2023-09-19T03:26:30;17.00;99.40
31967;DHT22;18496;52.042;6.812;2023-09-19T03:28:34;17.00;99.30
31967;DHT22;18496;52.042;6.812;2023-09-19T03:30:38;17.00;99.20
31967;DHT22;18496;52.042;6.812;2023-09-19T03:32:49;16.90;99.20
31967;DHT22;18496;52.042;6.812;2023-09-19T03:34:54;16.90;99.20
31967;DHT22;18496;52.042;6.812;2023-09-19T03:36:57;16.90;99.30
31967;DHT22;18496;52.042;6.812;2023-09-19T03:39:02;16.90;99.10
31967;DHT22;18496;52.042;6.812;2023-09-19T03:41:08;16.90;99.10
31967;DHT22;18496;52.042;6.812;2023-09-19T03:43:13;16.90;98.90
31967;DHT22;18496;52.042;6.812;2023-09-19T03:45:17;16.90;98.90
31967;DHT22;18496;52.042;6.812;2023-09-19T03:47:25;16.90;98.70
31967;DHT22;18496;52.042;6.812;2023-09-19T03:49:31;16.80;98.70
31967;DHT22;18496;52.042;6.812;2023-09-19T03:51:35;16.80;98.80
31967;DHT22;18496;52.042;6.812;2023-09-19T03:53:39;16.80;98.60
31967;DHT22;18496;52.042;6.812;2023-09-19T03:55:45;16.80;98.80
31967;DHT22;18496;52.042;6.812;2023-09-19T03:57:49;16.80;98.40
31967;DHT22;18496;52.042;6.812;2023-09-19T03:59:53;16.80;98.50
31967;DHT22;18496;52.042;6.812;2023-09-19T04:01:57;16.70;98.40
31967;DHT22;18496;52.042;6.812;2023-09-19T04:04:01;16.70;98.30
31967;DHT22;18496;52.042;6.812;2023-09-19T04:06:14;16.70;98.40
31967;DHT22;18496;52.042;6.812;2023-09-19T04:08:18;16.70;98.30
31967;DHT22;18496;52.042;6.812;2023-09-19T04:10:22;16.60;98.20
31967;DHT22;18496;52.042;6.812;2023-09-19T04:12:25;16.60;98.30
31967;DHT22;18496;52.042;6.812;2023-09-19T04:14:29;16.60;98.30
31967;DHT22;18496;52.042;6.812;2023-09-19T04:16:33;16.60;98.10
31967;DHT22;18496;52.042;6.812;2023-09-19T04:18:37;16.60;98.10
31967;DHT22;18496;52.042;6.812;2023-09-19T04:20:48;16.50;98.20
31967;DHT22;18496;52.042;6.812;2023-09-19T04:22:52;16.50;98.00
31967;DHT22;18496;52.042;6.812;2023-09-19T04:24:56;16.50;98.00
31967;DHT22;18496;52.042;6.812;2023-09-19T04:27:00;16.50;97.90
31967;DHT22;18496;52.042;6.812;2023-09-19T04:29:03;16.50;97.90
31967;DHT22;18496;52.042;6.812;2023-09-19T04:31:07;16.50;97.80
31967;DHT22;18496;52.042;6.812;2023-09-19T04:33:11;16.50;97.60
31967;DHT22;18496;52.042;6.812;2023-09-19T04:35:18;16.50;97.70
31967;DHT22;18496;52.042;6.812;2023-09-19T04:37:21;16.40;97.50
31967;DHT22;18496;52.042;6.812;2023-09-19T04:39:25;16.40;97.60
31967;DHT22;18496;52.042;6.812;2023-09-19T04:41:29;16.40;97.60
31967;DHT22;18496;52.042;6.812;2023-09-19T04:43:33;16.30;97.50
31967;DHT22;18496;52.042;6.812;2023-09-19T04:45:38;16.30;97.60
31967;DHT22;18496;52.042;6.812;2023-09-19T04:47:42;16.30;97.60
31967;DHT22;18496;52.042;6.812;2023-09-19T04:49:47;16.20;97.50
31967;DHT22;18496;52.042;6.812;2023-09-19T04:51:50;16.20;97.50
31967;DHT22;18496;52.042;6.812;2023-09-19T04:53:54;16.20;97.60
31967;DHT22;18496;52.042;6.812;2023-09-19T04:55:58;16.30;97.50
31967;DHT22;18496;52.042;6.812;2023-09-19T04:58:01;16.30;97.30
31967;DHT22;18496;52.042;6.812;2023-09-19T05:00:06;16.30;97.20
31967;DHT22;18496;52.042;6.812;2023-09-19T05:02:15;16.30;97.10
31967;DHT22;18496;52.042;6.812;2023-09-19T05:04:19;16.30;97.10
31967;DHT22;18496;52.042;6.812;2023-09-19T05:06:22;16.30;97.20
31967;DHT22;18496;52.042;6.812;2023-09-19T05:08:26;16.30;96.90
31967;DHT22;18496;52.042;6.812;2023-09-19T05:10:30;16.30;96.80
31967;DHT22;18496;52.042;6.812;2023-09-19T05:12:34;16.30;96.80
31967;DHT22;18496;52.042;6.812;2023-09-19T05:14:41;16.30;96.60
31967;DHT22;18496;52.042;6.812;2023-09-19T05:16:44;16.20;96.50
31967;DHT22;18496;52.042;6.812;2023-09-19T05:18:48;16.20;96.60
31967;DHT22;18496;52.042;6.812;2023-09-19T05:20:53;16.20;96.70
31967;DHT22;18496;52.042;6.812;2023-09-19T05:22:59;16.20;96.50
31967;DHT22;18496;52.042;6.812;2023-09-19T05:25:05;16.20;96.50
31967;DHT22;18496;52.042;6.812;2023-09-19T05:27:09;16.20;96.50
31967;DHT22;18496;52.042;6.812;2023-09-19T05:29:13;16.10;96.60
31967;DHT22;18496;52.042;6.812;2023-09-19T05:31:17;16.10;96.50
31967;DHT22;18496;52.042;6.812;2023-09-19T05:33:20;16.10;96.50
31967;DHT22;18496;52.042;6.812;2023-09-19T05:35:24;16.20;96.60
31967;DHT22;18496;52.042;6.812;2023-09-19T05:37:28;16.10;96.70
31967;DHT22;18496;52.042;6.812;2023-09-19T05:39:33;16.10;96.60
31967;DHT22;18496;52.042;6.812;2023-09-19T05:41:37;16.20;96.70
31967;DHT22;18496;52.042;6.812;2023-09-19T05:43:43;16.20;96.60
31967;DHT22;18496;52.042;6.812;2023-09-19T05:45:47;16.20;96.70
31967;DHT22;18496;52.042;6.812;2023-09-19T05:47:52;16.10;96.70
31967;DHT22;18496;52.042;6.812;2023-09-19T05:49:59;16.20;96.80
31967;DHT22;18496;52.042;6.812;2023-09-19T05:52:04;16.10;97.10
31967;DHT22;18496;52.042;6.812;2023-09-19T05:54:08;16.10;97.00
31967;DHT22;18496;52.042;6.812;2023-09-19T05:56:12;16.20;97.20
31967;DHT22;18496;52.042;6.812;2023-09-19T05:58:17;16.10;97.00
31967;DHT22;18496;52.042;6.812;2023-09-19T06:00:22;16.10;97.20
31967;DHT22;18496;52.042;6.812;2023-09-19T06:02:26;16.20;97.10
31967;DHT22;18496;52.042;6.812;2023-09-19T06:04:33;16.20;97.20
31967;DHT22;18496;52.042;6.812;2023-09-19T06:06:37;16.20;97.10
31967;DHT22;18496;52.042;6.812;2023-09-19T06:08:43;16.20;97.40
31967;DHT22;18496;52.042;6.812;2023-09-19T06:10:48;16.20;97.20
31967;DHT22;18496;52.042;6.812;2023-09-19T06:12:52;16.20;97.20
31967;DHT22;18496;52.042;6.812;2023-09-19T06:14:56;16.20;97.30
31967;DHT22;18496;52.042;6.812;2023-09-19T06:17:00;16.20;97.40
31967;DHT22;18496;52.042;6.812;2023-09-19T06:19:03;16.20;97.50
31967;DHT22;18496;52.042;6.812;2023-09-19T06:21:10;16.20;97.60
31967;DHT22;18496;52.042;6.812;2023-09-19T06:23:13;16.30;97.70
31967;DHT22;18496;52.042;6.812;2023-09-19T06:25:18;16.20;97.60
31967;DHT22;18496;52.042;6.812;2023-09-19T06:27:25;16.20;97.70
31967;DHT22;18496;52.042;6.812;2023-09-19T06:29:28;16.20;97.80
31967;DHT22;18496;52.042;6.812;2023-09-19T06:31:32;16.20;97.90
31967;DHT22;18496;52.042;6.812;2023-09-19T06:33:37;16.20;97.90
31967;DHT22;18496;52.042;6.812;2023-09-19T06:35:43;16.20;98.20
31967;DHT22;18496;52.042;6.812;2023-09-19T06:37:48;16.20;98.20
31967;DHT22;18496;52.042;6.812;2023-09-19T06:39:54;16.20;98.20
31967;DHT22;18496;52.042;6.812;2023-09-19T06:41:58;16.20;98.30
31967;DHT22;18496;52.042;6.812;2023-09-19T06:44:02;16.10;98.40
31967;DHT22;18496;52.042;6.812;2023-09-19T06:46:05;16.10;98.50
31967;DHT22;18496;52.042;6.812;2023-09-19T06:48:10;16.20;98.70
31967;DHT22;18496;52.042;6.812;2023-09-19T06:50:16;16.20;98.60
31967;DHT22;18496;52.042;6.812;2023-09-19T06:52:22;16.30;98.60
31967;DHT22;18496;52.042;6.812;2023-09-19T06:54:26;16.30;98.50
31967;DHT22;18496;52.042;6.812;2023-09-19T06:56:33;16.30;98.50
31967;DHT22;18496;52.042;6.812;2023-09-19T06:58:37;16.30;98.60
31967;DHT22;18496;52.042;6.812;2023-09-19T07:00:40;16.30;98.60
31967;DHT22;18496;52.042;6.812;2023-09-19T07:03:07;16.30;98.70
31967;DHT22;18496;52.042;6.812;2023-09-19T07:05:17;16.30;98.70
31967;DHT22;18496;52.042;6.812;2023-09-19T07:07:21;16.30;98.70
31967;DHT22;18496;52.042;6.812;2023-09-19T07:09:25;16.40;98.70
31967;DHT22;18496;52.042;6.812;2023-09-19T07:11:31;16.40;98.80
31967;DHT22;18496;52.042;6.812;2023-09-19T07:13:34;16.40;98.80
31967;DHT22;18496;52.042;6.812;2023-09-19T07:15:39;16.40;98.80
31967;DHT22;18496;52.042;6.812;2023-09-19T07:17:45;16.50;98.70
31967;DHT22;18496;52.042;6.812;2023-09-19T07:19:49;16.50;98.80
31967;DHT22;18496;52.042;6.812;2023-09-19T07:21:54;16.50;98.80
31967;DHT22;18496;52.042;6.812;2023-09-19T07:23:57;16.50;98.90
31967;DHT22;18496;52.042;6.812;2023-09-19T07:26:04;16.50;98.80
31967;DHT22;18496;52.042;6.812;2023-09-19T07:28:08;16.60;98.90
31967;DHT22;18496;52.042;6.812;2023-09-19T07:30:12;16.60;98.80
31967;DHT22;18496;52.042;6.812;2023-09-19T07:32:16;16.60;98.80
31967;DHT22;18496;52.042;6.812;2023-09-19T07:34:20;16.60;98.80
31967;DHT22;18496;52.042;6.812;2023-09-19T07:36:26;16.70;99.00
31967;DHT22;18496;52.042;6.812;2023-09-19T07:38:30;16.70;99.00
31967;DHT22;18496;52.042;6.812;2023-09-19T07:40:33;16.70;98.80
31967;DHT22;18496;52.042;6.812;2023-09-19T07:42:37;16.70;98.80
31967;DHT22;18496;52.042;6.812;2023-09-19T07:44:44;16.70;98.90
31967;DHT22;18496;52.042;6.812;2023-09-19T07:46:50;16.70;98.90
31967;DHT22;18496;52.042;6.812;2023-09-19T07:48:55;16.70;99.00
31967;DHT22;18496;52.042;6.812;2023-09-19T07:51:04;16.80;99.00
31967;DHT22;18496;52.042;6.812;2023-09-19T07:53:07;16.90;98.90
31967;DHT22;18496;52.042;6.812;2023-09-19T07:55:11;16.90;98.90
31967;DHT22;18496;52.042;6.812;2023-09-19T07:57:19;16.90;99.00
31967;DHT22;18496;52.042;6.812;2023-09-19T07:59:23;17.00;98.80
31967;DHT22;18496;52.042;6.812;2023-09-19T08:01:27;17.00;98.70
31967;DHT22;18496;52.042;6.812;2023-09-19T08:03:31;17.00;98.70
31967;DHT22;18496;52.042;6.812;2023-09-19T08:05:34;17.10;98.60
31967;DHT22;18496;52.042;6.812;2023-09-19T08:07:42;17.10;98.40
31967;DHT22;18496;52.042;6.812;2023-09-19T08:09:45;17.10;98.50
31967;DHT22;18496;52.042;6.812;2023-09-19T08:11:52;17.10;98.40
31967;DHT22;18496;52.042;6.812;2023-09-19T08:13:55;17.10;98.50
31967;DHT22;18496;52.042;6.812;2023-09-19T08:15:59;17.20;98.40
31967;DHT22;18496;52.042;6.812;2023-09-19T08:18:03;17.20;98.50
31967;DHT22;18496;52.042;6.812;2023-09-19T08:20:07;17.20;98.50
31967;DHT22;18496;52.042;6.812;2023-09-19T08:22:12;17.20;98.50
31967;DHT22;18496;52.042;6.812;2023-09-19T08:24:16;17.20;98.50
31967;DHT22;18496;52.042;6.812;2023-09-19T08:26:20;17.30;98.50
31967;DHT22;18496;52.042;6.812;2023-09-19T08:28:25;17.30;98.50
31967;DHT22;18496;52.042;6.812;2023-09-19T08:30:28;17.40;98.50
31967;DHT22;18496;52.042;6.812;2023-09-19T08:32:33;17.30;98.40
31967;DHT22;18496;52.042;6.812;2023-09-19T08:34:37;17.40;98.40
31967;DHT22;18496;52.042;6.812;2023-09-19T08:36:42;17.40;98.30
31967;DHT22;18496;52.042;6.812;2023-09-19T08:38:47;17.40;98.40
31967;DHT22;18496;52.042;6.812;2023-09-19T08:40:53;17.40;98.30
31967;DHT22;18496;52.042;6.812;2023-09-19T08:42:56;17.50;98.20
31967;DHT22;18496;52.042;6.812;2023-09-19T08:45:01;17.40;98.10
31967;DHT22;18496;52.042;6.812;2023-09-19T08:47:15;17.50;98.40
31967;DHT22;18496;52.042;6.812;2023-09-19T08:49:27;17.60;98.40
31967;DHT22;18496;52.042;6.812;2023-09-19T08:51:45;17.60;98.10
31967;DHT22;18496;52.042;6.812;2023-09-19T08:54:16;17.60;98.10
31967;DHT22;18496;52.042;6.812;2023-09-19T08:56:26;17.60;98.00
31967;DHT22;18496;52.042;6.812;2023-09-19T08:58:57;17.60;98.00
31967;DHT22;18496;52.042;6.812;2023-09-19T09:01:00;17.70;98.20
31967;DHT22;18496;52.042;6.812;2023-09-19T09:03:04;17.80;98.00
31967;DHT22;18496;52.042;6.812;2023-09-19T09:05:12;17.80;98.00
31967;DHT22;18496;52.042;6.812;2023-09-19T09:07:19;17.90;97.70
31967;DHT22;18496;52.042;6.812;2023-09-19T09:09:24;18.00;97.70
31967;DHT22;18496;52.042;6.812;2023-09-19T09:11:28;18.00;97.70
31967;DHT22;18496;52.042;6.812;2023-09-19T09:13:32;18.10;97.50
31967;DHT22;18496;52.042;6.812;2023-09-19T09:15:37;18.10;97.10
31967;DHT22;18496;52.042;6.812;2023-09-19T09:17:41;18.10;97.10
31967;DHT22;18496;52.042;6.812;2023-09-19T09:19:47;18.10;97.40
31967;DHT22;18496;52.042;6.812;2023-09-19T09:21:51;18.20;97.20
31967;DHT22;18496;52.042;6.812;2023-09-19T09:23:55;18.20;97.20
31967;DHT22;18496;52.042;6.812;2023-09-19T09:26:00;18.20;97.40
31967;DHT22;18496;52.042;6.812;2023-09-19T09:28:06;18.30;97.40
31967;DHT22;18496;52.042;6.812;2023-09-19T09:30:32;18.40;97.10
31967;DHT22;18496;52.042;6.812;2023-09-19T09:32:36;18.30;97.10
31967;DHT22;18496;52.042;6.812;2023-09-19T09:34:40;18.40;97.10
31967;DHT22;18496;52.042;6.812;2023-09-19T09:36:48;18.40;97.00
31967;DHT22;18496;52.042;6.812;2023-09-19T09:38:51;18.40;96.80
31967;DHT22;18496;52.042;6.812;2023-09-19T09:40:59;18.40;96.80
31967;DHT22;18496;52.042;6.812;2023-09-19T09:43:26;18.40;97.00
31967;DHT22;18496;52.042;6.812;2023-09-19T09:45:31;18.40;97.00
31967;DHT22;18496;52.042;6.812;2023-09-19T09:47:45;18.50;97.00
31967;DHT22;18496;52.042;6.812;2023-09-19T09:49:57;18.50;96.60
31967;DHT22;18496;52.042;6.812;2023-09-19T09:52:10;18.50;96.60
31967;DHT22;18496;52.042;6.812;2023-09-19T09:54:20;18.60;96.80
31967;DHT22;18496;52.042;6.812;2023-09-19T09:56:24;18.60;96.70
31967;DHT22;18496;52.042;6.812;2023-09-19T09:58:28;18.70;96.30
31967;DHT22;18496;52.042;6.812;2023-09-19T10:00:52;18.70;96.10
31967;DHT22;18496;52.042;6.812;2023-09-19T10:03:00;18.80;95.80
31967;DHT22;18496;52.042;6.812;2023-09-19T10:05:15;18.90;95.90
31967;DHT22;18496;52.042;6.812;2023-09-19T10:07:36;18.90;95.80
31967;DHT22;18496;52.042;6.812;2023-09-19T10:09:45;19.00;95.70
31967;DHT22;18496;52.042;6.812;2023-09-19T10:12:04;19.10;95.60
31967;DHT22;18496;52.042;6.812;2023-09-19T10:14:11;19.20;95.40
31967;DHT22;18496;52.042;6.812;2023-09-19T10:16:19;19.30;94.50
31967;DHT22;18496;52.042;6.812;2023-09-19T10:18:25;19.30;94.10
31967;DHT22;18496;52.042;6.812;2023-09-19T10:20:28;19.30;94.10
31967;DHT22;18496;52.042;6.812;2023-09-19T10:22:36;19.20;93.70
31967;DHT22;18496;52.042;6.812;2023-09-19T10:24:40;19.20;93.90
31967;DHT22;18496;52.042;6.812;2023-09-19T10:26:45;19.20;93.50
31967;DHT22;18496;52.042;6.812;2023-09-19T10:28:50;19.20;93.60
31967;DHT22;18496;52.042;6.812;2023-09-19T10:30:56;19.20;93.70
31967;DHT22;18496;52.042;6.812;2023-09-19T10:33:03;19.10;93.00
31967;DHT22;18496;52.042;6.812;2023-09-19T10:35:07;19.10;93.20
31967;DHT22;18496;52.042;6.812;2023-09-19T10:37:13;19.10;93.40
31967;DHT22;18496;52.042;6.812;2023-09-19T10:39:18;19.10;93.70
31967;DHT22;18496;52.042;6.812;2023-09-19T10:41:25;19.30;93.50
31967;DHT22;18496;52.042;6.812;2023-09-19T10:43:32;19.30;93.40
31967;DHT22;18496;52.042;6.812;2023-09-19T10:45:36;19.40;93.60
31967;DHT22;18496;52.042;6.812;2023-09-19T10:47:43;19.40;93.50
31967;DHT22;18496;52.042;6.812;2023-09-19T10:49:47;19.50;92.70
31967;DHT22;18496;52.042;6.812;2023-09-19T10:51:57;19.50;92.20
31967;DHT22;18496;52.042;6.812;2023-09-19T10:54:10;19.60;92.40
31967;DHT22;18496;52.042;6.812;2023-09-19T10:56:33;19.70;92.50
31967;DHT22;18496;52.042;6.812;2023-09-19T10:58:40;19.70;92.10
31967;DHT22;18496;52.042;6.812;2023-09-19T11:00:52;19.80;92.40
31967;DHT22;18496;52.042;6.812;2023-09-19T11:05:13;19.90;92.10
31967;DHT22;18496;52.042;6.812;2023-09-19T11:07:17;19.90;92.20
31967;DHT22;18496;52.042;6.812;2023-09-19T11:09:20;20.00;92.30
31967;DHT22;18496;52.042;6.812;2023-09-19T11:13:43;20.10;92.10
31967;DHT22;18496;52.042;6.812;2023-09-19T11:20:45;20.10;91.40
31967;DHT22;18496;52.042;6.812;2023-09-19T11:30:28;20.00;92.10
31967;DHT22;18496;52.042;6.812;2023-09-19T11:35:15;20.00;91.80
31967;DHT22;18496;52.042;6.812;2023-09-19T11:39:36;20.00;92.10
31967;DHT22;18496;52.042;6.812;2023-09-19T11:41:41;20.00;91.90
31967;DHT22;18496;52.042;6.812;2023-09-19T11:43:45;20.10;91.80
31967;DHT22;18496;52.042;6.812;2023-09-19T11:48:01;20.20;92.00
31967;DHT22;18496;52.042;6.812;2023-09-19T11:50:05;20.30;91.60
31967;DHT22;18496;52.042;6.812;2023-09-19T11:52:21;20.30;91.70
31967;DHT22;18496;52.042;6.812;2023-09-19T11:54:27;20.30;92.00
31967;DHT22;18496;52.042;6.812;2023-09-19T11:56:39;20.40;91.80
31967;DHT22;18496;52.042;6.812;2023-09-19T11:58:45;20.40;91.40
31967;DHT22;18496;52.042;6.812;2023-09-19T12:00:54;20.40;91.40
31967;DHT22;18496;52.042;6.812;2023-09-19T12:03:08;20.50;91.80
31967;DHT22;18496;52.042;6.812;2023-09-19T12:05:13;20.60;90.70
31967;DHT22;18496;52.042;6.812;2023-09-19T12:07:17;20.70;90.90
31967;DHT22;18496;52.042;6.812;2023-09-19T12:09:22;20.80;90.90
31967;DHT22;18496;52.042;6.812;2023-09-19T12:11:30;20.90;91.00
31967;DHT22;18496;52.042;6.812;2023-09-19T12:13:44;21.00;90.40
31967;DHT22;18496;52.042;6.812;2023-09-19T12:15:49;21.00;90.40
31967;DHT22;18496;52.042;6.812;2023-09-19T12:17:52;20.90;90.30
31967;DHT22;18496;52.042;6.812;2023-09-19T12:19:57;20.80;90.40
31967;DHT22;18496;52.042;6.812;2023-09-19T12:22:03;20.80;90.60
31967;DHT22;18496;52.042;6.812;2023-09-19T12:24:14;20.80;90.30
31967;DHT22;18496;52.042;6.812;2023-09-19T12:26:19;20.70;90.40
31967;DHT22;18496;52.042;6.812;2023-09-19T12:28:26;20.70;90.80
31967;DHT22;18496;52.042;6.812;2023-09-19T12:30:32;20.70;90.70
31967;DHT22;18496;52.042;6.812;2023-09-19T12:32:40;20.70;91.10
31967;DHT22;18496;52.042;6.812;2023-09-19T12:34:50;20.80;90.90
31967;DHT22;18496;52.042;6.812;2023-09-19T12:37:11;21.00;90.50
31967;DHT22;18496;52.042;6.812;2023-09-19T12:39:25;20.90;90.10
31967;DHT22;18496;52.042;6.812;2023-09-19T12:41:29;21.00;90.50
31967;DHT22;18496;52.042;6.812;2023-09-19T12:43:34;21.00;90.20
31967;DHT22;18496;52.042;6.812;2023-09-19T12:45:42;21.10;90.10
31967;DHT22;18496;52.042;6.812;2023-09-19T12:48:26;21.10;90.40
31967;DHT22;18496;52.042;6.812;2023-09-19T12:50:33;21.10;89.90
31967;DHT22;18496;52.042;6.812;2023-09-19T12:52:38;21.10;90.20
31967;DHT22;18496;52.042;6.812;2023-09-19T12:54:42;21.10;89.80
31967;DHT22;18496;52.042;6.812;2023-09-19T12:56:47;21.20;90.30
31967;DHT22;18496;52.042;6.812;2023-09-19T12:58:54;21.20;89.70
31967;DHT22;18496;52.042;6.812;2023-09-19T13:00:58;21.20;90.10
31967;DHT22;18496;52.042;6.812;2023-09-19T13:03:29;21.30;89.70
31967;DHT22;18496;52.042;6.812;2023-09-19T13:05:50;21.50;89.30
31967;DHT22;18496;52.042;6.812;2023-09-19T13:07:54;21.60;88.20
31967;DHT22;18496;52.042;6.812;2023-09-19T13:10:04;21.60;87.50
31967;DHT22;18496;52.042;6.812;2023-09-19T13:12:37;21.60;87.40
31967;DHT22;18496;52.042;6.812;2023-09-19T13:14:42;21.70;86.60
31967;DHT22;18496;52.042;6.812;2023-09-19T13:17:07;21.70;86.10
31967;DHT22;18496;52.042;6.812;2023-09-19T13:19:43;21.50;87.30
31967;DHT22;18496;52.042;6.812;2023-09-19T13:21:49;21.60;87.30
31967;DHT22;18496;52.042;6.812;2023-09-19T13:23:56;21.60;86.80
31967;DHT22;18496;52.042;6.812;2023-09-19T13:26:19;21.60;87.50
31967;DHT22;18496;52.042;6.812;2023-09-19T13:28:23;21.60;86.50
31967;DHT22;18496;52.042;6.812;2023-09-19T13:30:27;21.60;87.20
31967;DHT22;18496;52.042;6.812;2023-09-19T13:32:37;21.60;87.20
31967;DHT22;18496;52.042;6.812;2023-09-19T13:34:43;21.50;87.40
31967;DHT22;18496;52.042;6.812;2023-09-19T13:36:47;21.50;87.50
31967;DHT22;18496;52.042;6.812;2023-09-19T13:38:51;21.40;87.20
31967;DHT22;18496;52.042;6.812;2023-09-19T13:40:56;21.30;87.90
31967;DHT22;18496;52.042;6.812;2023-09-19T13:43:00;21.30;88.40
31967;DHT22;18496;52.042;6.812;2023-09-19T13:45:04;21.20;87.80
31967;DHT22;18496;52.042;6.812;2023-09-19T13:47:08;21.20;87.70
31967;DHT22;18496;52.042;6.812;2023-09-19T13:49:13;21.10;88.50
31967;DHT22;18496;52.042;6.812;2023-09-19T13:51:17;21.10;88.10
31967;DHT22;18496;52.042;6.812;2023-09-19T13:53:22;21.10;87.70
31967;DHT22;18496;52.042;6.812;2023-09-19T13:55:27;21.00;88.10
31967;DHT22;18496;52.042;6.812;2023-09-19T13:57:30;20.90;88.50
31967;DHT22;18496;52.042;6.812;2023-09-19T13:59:34;20.90;89.00
31967;DHT22;18496;52.042;6.812;2023-09-19T14:01:37;20.90;89.50